LFBA/AGF METAR and TAF weather

Enter ICAO airport designator
Station Type Date Time Source
LFBA METAR 2020/01/23 09:00 UTC NOAA

LFBA 230900Z AUTO 10012KT 9999 BKN049/// OVC140/// ///TCU 13/07 Q1020 BECMG BKN040


Station Type Date Time Source
LFBA Decoded METAR 2020/01/23 09:00 UTC NOAA

Agen, France (LFBA) 44-11N 000-36E 60M
Jan 23, 2020 - 04:00 AM EST / 2020.01.23 0900 UTC
Wind: from the E (100 degrees) at 14 MPH (12 KT):0
Visibility: greater than 7 mile(s):0
Sky conditions: overcast
Weather: Towering cumulus clouds observed
Temperature: 55 F (13 C)
Dew Point: 44 F (7 C)
Relative Humidity: 66%
Pressure (altimeter): 30.12 in. Hg (1020 hPa)
ob: LFBA 230900Z AUTO 10012KT 9999 BKN049/// OVC140/// ///TCU 13/07 Q1020 BECMG BKN040
cycle: 9

Station Type Date Time Source
LFBA TAF 2014/12/22 20:03 UTC NOAA

TAF
AMD TAF
AMD LFBA 222037Z 2220/2224 12007KT 0400 FG VV///
TEMPO 2220/2224 0100 PROB30
TEMPO 2222/2224 FZFG

Example: see airport list